sensor_id;sensor_type;location;lat;lon;timestamp;P1;durP1;ratioP1;P2;durP2;ratioP2
60653;SDS011;46476;53.614;10.048;2022-10-31T00:00:15;25.60;;;15.05;;
60653;SDS011;46476;53.614;10.048;2022-10-31T00:02:40;25.23;;;14.35;;
60653;SDS011;46476;53.614;10.048;2022-10-31T00:05:06;22.25;;;14.23;;
60653;SDS011;46476;53.614;10.048;2022-10-31T00:07:31;24.48;;;14.27;;
60653;SDS011;46476;53.614;10.048;2022-10-31T00:09:56;19.08;;;14.15;;
60653;SDS011;46476;53.614;10.048;2022-10-31T00:12:22;28.92;;;15.27;;
60653;SDS011;46476;53.614;10.048;2022-10-31T00:14:47;25.83;;;15.88;;
60653;SDS011;46476;53.614;10.048;2022-10-31T00:17:12;25.13;;;14.32;;
60653;SDS011;46476;53.614;10.048;2022-10-31T00:19:38;21.33;;;14.88;;
60653;SDS011;46476;53.614;10.048;2022-10-31T00:22:03;22.13;;;15.52;;
60653;SDS011;46476;53.614;10.048;2022-10-31T00:24:28;21.40;;;14.75;;
60653;SDS011;46476;53.614;10.048;2022-10-31T00:26:53;31.83;;;17.83;;
60653;SDS011;46476;53.614;10.048;2022-10-31T00:29:19;28.20;;;17.85;;
60653;SDS011;46476;53.614;10.048;2022-10-31T00:31:44;23.25;;;15.13;;
60653;SDS011;46476;53.614;10.048;2022-10-31T00:34:09;21.55;;;13.90;;
60653;SDS011;46476;53.614;10.048;2022-10-31T00:36:34;24.67;;;14.50;;
60653;SDS011;46476;53.614;10.048;2022-10-31T00:39:00;22.88;;;14.48;;
60653;SDS011;46476;53.614;10.048;2022-10-31T00:41:26;21.40;;;13.68;;
60653;SDS011;46476;53.614;10.048;2022-10-31T00:43:51;21.17;;;13.75;;
60653;SDS011;46476;53.614;10.048;2022-10-31T00:46:16;23.08;;;14.18;;
60653;SDS011;46476;53.614;10.048;2022-10-31T00:48:42;23.60;;;13.88;;
60653;SDS011;46476;53.614;10.048;2022-10-31T00:51:07;20.50;;;14.30;;
60653;SDS011;46476;53.614;10.048;2022-10-31T00:53:32;19.90;;;13.07;;
60653;SDS011;46476;53.614;10.048;2022-10-31T00:55:58;24.10;;;13.43;;
60653;SDS011;46476;53.614;10.048;2022-10-31T00:58:23;22.35;;;13.65;;
60653;SDS011;46476;53.614;10.048;2022-10-31T01:00:48;20.45;;;13.60;;
60653;SDS011;46476;53.614;10.048;2022-10-31T01:03:23;21.27;;;12.70;;
60653;SDS011;46476;53.614;10.048;2022-10-31T01:08:27;24.17;;;13.63;;
60653;SDS011;46476;53.614;10.048;2022-10-31T01:13:36;17.17;;;13.20;;
60653;SDS011;46476;53.614;10.048;2022-10-31T01:16:03;18.70;;;12.60;;
60653;SDS011;46476;53.614;10.048;2022-10-31T01:18:30;21.70;;;13.27;;
60653;SDS011;46476;53.614;10.048;2022-10-31T01:23:24;19.30;;;13.18;;
60653;SDS011;46476;53.614;10.048;2022-10-31T01:25:58;21.58;;;12.00;;
60653;SDS011;46476;53.614;10.048;2022-10-31T01:28:24;19.77;;;11.63;;
60653;SDS011;46476;53.614;10.048;2022-10-31T01:30:49;22.30;;;11.48;;
60653;SDS011;46476;53.614;10.048;2022-10-31T01:33:14;19.73;;;11.25;;
60653;SDS011;46476;53.614;10.048;2022-10-31T01:35:40;20.35;;;11.23;;
60653;SDS011;46476;53.614;10.048;2022-10-31T01:38:05;17.83;;;11.00;;
60653;SDS011;46476;53.614;10.048;2022-10-31T01:40:30;19.90;;;11.68;;
60653;SDS011;46476;53.614;10.048;2022-10-31T01:42:56;20.20;;;11.27;;
60653;SDS011;46476;53.614;10.048;2022-10-31T01:45:21;21.55;;;12.10;;
60653;SDS011;46476;53.614;10.048;2022-10-31T01:47:46;19.52;;;11.95;;
60653;SDS011;46476;53.614;10.048;2022-10-31T01:50:15;19.67;;;11.65;;
60653;SDS011;46476;53.614;10.048;2022-10-31T01:52:53;24.85;;;12.90;;
60653;SDS011;46476;53.614;10.048;2022-10-31T01:55:24;22.55;;;12.13;;
60653;SDS011;46476;53.614;10.048;2022-10-31T01:57:54;16.30;;;11.73;;
60653;SDS011;46476;53.614;10.048;2022-10-31T02:00:21;20.20;;;12.23;;
60653;SDS011;46476;53.614;10.048;2022-10-31T02:02:47;20.67;;;12.40;;
60653;SDS011;46476;53.614;10.048;2022-10-31T02:05:16;24.48;;;12.27;;
60653;SDS011;46476;53.614;10.048;2022-10-31T02:07:58;18.95;;;12.07;;
60653;SDS011;46476;53.614;10.048;2022-10-31T02:10:25;21.65;;;12.10;;
60653;SDS011;46476;53.614;10.048;2022-10-31T02:12:51;19.30;;;11.73;;
60653;SDS011;46476;53.614;10.048;2022-10-31T02:15:19;24.83;;;12.18;;
60653;SDS011;46476;53.614;10.048;2022-10-31T02:17:45;23.60;;;12.73;;
60653;SDS011;46476;53.614;10.048;2022-10-31T02:20:13;20.45;;;12.02;;
60653;SDS011;46476;53.614;10.048;2022-10-31T02:23:03;19.48;;;11.80;;
60653;SDS011;46476;53.614;10.048;2022-10-31T02:28:49;19.95;;;11.77;;
60653;SDS011;46476;53.614;10.048;2022-10-31T02:32:13;19.00;;;11.63;;
60653;SDS011;46476;53.614;10.048;2022-10-31T02:34:36;22.17;;;11.90;;
60653;SDS011;46476;53.614;10.048;2022-10-31T02:37:14;23.67;;;12.02;;
60653;SDS011;46476;53.614;10.048;2022-10-31T02:39:57;18.52;;;11.50;;
60653;SDS011;46476;53.614;10.048;2022-10-31T02:45:16;22.05;;;12.50;;
60653;SDS011;46476;53.614;10.048;2022-10-31T02:47:48;24.77;;;12.55;;
60653;SDS011;46476;53.614;10.048;2022-10-31T02:50:20;21.40;;;12.50;;
60653;SDS011;46476;53.614;10.048;2022-10-31T02:52:50;22.40;;;12.27;;
60653;SDS011;46476;53.614;10.048;2022-10-31T02:57:55;21.80;;;12.65;;
60653;SDS011;46476;53.614;10.048;2022-10-31T03:00:26;23.70;;;11.82;;
60653;SDS011;46476;53.614;10.048;2022-10-31T03:11:01;19.33;;;12.00;;
60653;SDS011;46476;53.614;10.048;2022-10-31T03:18:50;20.02;;;11.68;;
60653;SDS011;46476;53.614;10.048;2022-10-31T03:21:26;17.85;;;11.82;;
60653;SDS011;46476;53.614;10.048;2022-10-31T03:23:55;17.83;;;11.55;;
60653;SDS011;46476;53.614;10.048;2022-10-31T03:26:23;21.48;;;12.40;;
60653;SDS011;46476;53.614;10.048;2022-10-31T03:29:11;17.80;;;11.48;;
60653;SDS011;46476;53.614;10.048;2022-10-31T03:31:44;19.65;;;11.43;;
60653;SDS011;46476;53.614;10.048;2022-10-31T03:34:15;22.63;;;11.90;;
60653;SDS011;46476;53.614;10.048;2022-10-31T03:36:42;20.25;;;11.80;;
60653;SDS011;46476;53.614;10.048;2022-10-31T03:39:12;22.05;;;11.70;;
60653;SDS011;46476;53.614;10.048;2022-10-31T03:41:44;19.38;;;11.73;;
60653;SDS011;46476;53.614;10.048;2022-10-31T03:44:16;20.27;;;11.73;;
60653;SDS011;46476;53.614;10.048;2022-10-31T03:46:44;20.40;;;11.95;;
60653;SDS011;46476;53.614;10.048;2022-10-31T03:49:09;18.73;;;11.30;;
60653;SDS011;46476;53.614;10.048;2022-10-31T03:51:38;21.98;;;11.27;;
60653;SDS011;46476;53.614;10.048;2022-10-31T03:54:24;18.98;;;11.10;;
60653;SDS011;46476;53.614;10.048;2022-10-31T03:56:56;26.45;;;12.80;;
60653;SDS011;46476;53.614;10.048;2022-10-31T03:59:30;20.90;;;12.50;;
60653;SDS011;46476;53.614;10.048;2022-10-31T04:02:05;18.92;;;10.43;;
60653;SDS011;46476;53.614;10.048;2022-10-31T04:04:33;20.10;;;11.98;;
60653;SDS011;46476;53.614;10.048;2022-10-31T04:07:00;19.13;;;12.23;;
60653;SDS011;46476;53.614;10.048;2022-10-31T04:09:27;17.25;;;11.75;;
60653;SDS011;46476;53.614;10.048;2022-10-31T04:11:56;22.63;;;11.98;;
60653;SDS011;46476;53.614;10.048;2022-10-31T04:14:26;22.52;;;12.10;;
60653;SDS011;46476;53.614;10.048;2022-10-31T04:16:54;24.08;;;11.50;;
60653;SDS011;46476;53.614;10.048;2022-10-31T04:19:20;21.25;;;11.18;;
60653;SDS011;46476;53.614;10.048;2022-10-31T04:21:45;21.40;;;11.77;;
60653;SDS011;46476;53.614;10.048;2022-10-31T04:24:11;19.02;;;12.25;;
60653;SDS011;46476;53.614;10.048;2022-10-31T04:26:36;19.15;;;12.13;;
60653;SDS011;46476;53.614;10.048;2022-10-31T04:29:02;19.45;;;10.90;;
60653;SDS011;46476;53.614;10.048;2022-10-31T04:31:27;18.48;;;11.73;;
60653;SDS011;46476;53.614;10.048;2022-10-31T04:33:52;19.85;;;11.48;;
60653;SDS011;46476;53.614;10.048;2022-10-31T04:36:18;21.00;;;11.60;;
60653;SDS011;46476;53.614;10.048;2022-10-31T04:38:43;23.10;;;11.82;;
60653;SDS011;46476;53.614;10.048;2022-10-31T04:41:08;18.08;;;11.20;;
60653;SDS011;46476;53.614;10.048;2022-10-31T04:43:34;18.38;;;12.43;;
60653;SDS011;46476;53.614;10.048;2022-10-31T04:45:59;20.08;;;12.73;;
60653;SDS011;46476;53.614;10.048;2022-10-31T04:48:25;23.63;;;12.43;;
60653;SDS011;46476;53.614;10.048;2022-10-31T04:50:50;18.35;;;11.32;;
60653;SDS011;46476;53.614;10.048;2022-10-31T04:53:15;23.67;;;12.48;;
60653;SDS011;46476;53.614;10.048;2022-10-31T04:55:41;21.10;;;12.20;;
60653;SDS011;46476;53.614;10.048;2022-10-31T04:58:06;20.90;;;12.52;;
60653;SDS011;46476;53.614;10.048;2022-10-31T05:00:31;22.02;;;12.80;;
60653;SDS011;46476;53.614;10.048;2022-10-31T05:02:57;24.27;;;12.73;;
60653;SDS011;46476;53.614;10.048;2022-10-31T05:05:24;22.95;;;12.55;;
60653;SDS011;46476;53.614;10.048;2022-10-31T05:07:51;19.63;;;12.75;;
60653;SDS011;46476;53.614;10.048;2022-10-31T05:10:18;23.45;;;12.52;;
60653;SDS011;46476;53.614;10.048;2022-10-31T05:12:46;21.00;;;13.05;;
60653;SDS011;46476;53.614;10.048;2022-10-31T05:15:13;23.88;;;13.50;;
60653;SDS011;46476;53.614;10.048;2022-10-31T05:17:38;21.50;;;12.55;;
60653;SDS011;46476;53.614;10.048;2022-10-31T05:20:04;24.73;;;12.57;;
60653;SDS011;46476;53.614;10.048;2022-10-31T05:22:29;23.45;;;12.65;;
60653;SDS011;46476;53.614;10.048;2022-10-31T05:24:55;22.98;;;12.20;;
60653;SDS011;46476;53.614;10.048;2022-10-31T05:27:20;23.00;;;12.07;;
60653;SDS011;46476;53.614;10.048;2022-10-31T05:29:46;17.65;;;11.85;;
60653;SDS011;46476;53.614;10.048;2022-10-31T05:32:11;22.30;;;12.30;;
60653;SDS011;46476;53.614;10.048;2022-10-31T05:34:36;22.65;;;12.02;;
60653;SDS011;46476;53.614;10.048;2022-10-31T05:37:02;22.83;;;11.82;;
60653;SDS011;46476;53.614;10.048;2022-10-31T05:39:27;22.50;;;12.10;;
60653;SDS011;46476;53.614;10.048;2022-10-31T05:41:52;24.48;;;12.20;;
60653;SDS011;46476;53.614;10.048;2022-10-31T05:44:17;21.75;;;12.00;;
60653;SDS011;46476;53.614;10.048;2022-10-31T05:46:43;19.98;;;12.60;;
60653;SDS011;46476;53.614;10.048;2022-10-31T05:49:08;22.58;;;11.38;;
60653;SDS011;46476;53.614;10.048;2022-10-31T05:51:33;22.75;;;12.23;;
60653;SDS011;46476;53.614;10.048;2022-10-31T05:53:59;19.35;;;11.70;;
60653;SDS011;46476;53.614;10.048;2022-10-31T05:56:24;19.77;;;12.18;;
60653;SDS011;46476;53.614;10.048;2022-10-31T05:58:49;22.45;;;12.40;;
60653;SDS011;46476;53.614;10.048;2022-10-31T06:01:14;20.13;;;11.73;;
60653;SDS011;46476;53.614;10.048;2022-10-31T06:03:40;19.23;;;11.73;;
60653;SDS011;46476;53.614;10.048;2022-10-31T06:06:05;18.50;;;12.05;;
60653;SDS011;46476;53.614;10.048;2022-10-31T06:08:31;22.83;;;12.18;;
60653;SDS011;46476;53.614;10.048;2022-10-31T06:10:56;21.02;;;12.00;;
60653;SDS011;46476;53.614;10.048;2022-10-31T06:13:21;20.02;;;11.52;;
60653;SDS011;46476;53.614;10.048;2022-10-31T06:15:46;22.70;;;11.63;;
60653;SDS011;46476;53.614;10.048;2022-10-31T06:18:12;19.45;;;12.32;;
60653;SDS011;46476;53.614;10.048;2022-10-31T06:20:37;19.35;;;11.60;;
60653;SDS011;46476;53.614;10.048;2022-10-31T06:23:03;20.92;;;11.23;;
60653;SDS011;46476;53.614;10.048;2022-10-31T06:25:28;19.85;;;11.20;;
60653;SDS011;46476;53.614;10.048;2022-10-31T06:27:54;20.00;;;11.68;;
60653;SDS011;46476;53.614;10.048;2022-10-31T06:30:19;18.02;;;10.75;;
60653;SDS011;46476;53.614;10.048;2022-10-31T06:32:44;19.02;;;10.60;;
60653;SDS011;46476;53.614;10.048;2022-10-31T06:35:10;19.20;;;10.55;;
60653;SDS011;46476;53.614;10.048;2022-10-31T06:37:37;21.48;;;11.80;;
60653;SDS011;46476;53.614;10.048;2022-10-31T06:40:02;18.90;;;11.75;;
60653;SDS011;46476;53.614;10.048;2022-10-31T06:42:28;20.05;;;11.68;;
60653;SDS011;46476;53.614;10.048;2022-10-31T06:44:53;18.58;;;11.75;;
60653;SDS011;46476;53.614;10.048;2022-10-31T06:47:18;19.75;;;12.35;;
60653;SDS011;46476;53.614;10.048;2022-10-31T06:49:44;19.98;;;11.35;;
60653;SDS011;46476;53.614;10.048;2022-10-31T06:52:09;17.95;;;10.88;;
60653;SDS011;46476;53.614;10.048;2022-10-31T06:54:34;23.08;;;12.45;;
60653;SDS011;46476;53.614;10.048;2022-10-31T06:57:01;18.58;;;11.68;;
60653;SDS011;46476;53.614;10.048;2022-10-31T06:59:26;23.83;;;11.50;;
60653;SDS011;46476;53.614;10.048;2022-10-31T07:01:51;22.08;;;12.38;;
60653;SDS011;46476;53.614;10.048;2022-10-31T07:04:17;19.42;;;12.05;;
60653;SDS011;46476;53.614;10.048;2022-10-31T07:06:42;17.67;;;11.00;;
60653;SDS011;46476;53.614;10.048;2022-10-31T07:09:07;17.20;;;10.60;;
60653;SDS011;46476;53.614;10.048;2022-10-31T07:11:33;15.93;;;10.05;;
60653;SDS011;46476;53.614;10.048;2022-10-31T07:13:58;18.05;;;10.75;;
60653;SDS011;46476;53.614;10.048;2022-10-31T07:16:23;16.20;;;9.88;;
60653;SDS011;46476;53.614;10.048;2022-10-31T07:18:49;16.58;;;9.85;;
60653;SDS011;46476;53.614;10.048;2022-10-31T07:21:15;16.73;;;10.63;;
60653;SDS011;46476;53.614;10.048;2022-10-31T07:23:40;19.77;;;11.30;;
60653;SDS011;46476;53.614;10.048;2022-10-31T07:26:06;20.75;;;11.10;;
60653;SDS011;46476;53.614;10.048;2022-10-31T07:28:31;16.80;;;9.70;;
60653;SDS011;46476;53.614;10.048;2022-10-31T07:30:56;17.50;;;9.77;;
60653;SDS011;46476;53.614;10.048;2022-10-31T07:33:22;18.80;;;9.80;;
60653;SDS011;46476;53.614;10.048;2022-10-31T07:35:48;19.42;;;10.63;;
60653;SDS011;46476;53.614;10.048;2022-10-31T07:38:14;17.40;;;10.00;;
60653;SDS011;46476;53.614;10.048;2022-10-31T07:40:40;16.58;;;8.48;;
60653;SDS011;46476;53.614;10.048;2022-10-31T07:43:07;17.15;;;9.20;;
60653;SDS011;46476;53.614;10.048;2022-10-31T07:45:33;15.70;;;9.85;;
60653;SDS011;46476;53.614;10.048;2022-10-31T07:47:58;16.42;;;9.55;;
60653;SDS011;46476;53.614;10.048;2022-10-31T07:50:24;14.68;;;9.20;;
60653;SDS011;46476;53.614;10.048;2022-10-31T07:53:01;22.67;;;11.00;;
60653;SDS011;46476;53.614;10.048;2022-10-31T07:55:31;16.67;;;10.63;;
60653;SDS011;46476;53.614;10.048;2022-10-31T07:57:57;15.18;;;9.60;;
60653;SDS011;46476;53.614;10.048;2022-10-31T08:00:22;16.83;;;9.68;;
60653;SDS011;46476;53.614;10.048;2022-10-31T08:02:48;15.40;;;8.90;;
60653;SDS011;46476;53.614;10.048;2022-10-31T08:05:13;16.05;;;8.57;;
60653;SDS011;46476;53.614;10.048;2022-10-31T08:07:39;14.70;;;9.20;;
60653;SDS011;46476;53.614;10.048;2022-10-31T08:10:04;13.38;;;8.07;;
60653;SDS011;46476;53.614;10.048;2022-10-31T08:12:30;15.95;;;8.82;;
60653;SDS011;46476;53.614;10.048;2022-10-31T08:14:55;12.77;;;8.15;;
60653;SDS011;46476;53.614;10.048;2022-10-31T08:17:21;15.32;;;8.75;;
60653;SDS011;46476;53.614;10.048;2022-10-31T08:19:46;14.45;;;8.25;;
60653;SDS011;46476;53.614;10.048;2022-10-31T08:22:11;14.10;;;8.05;;
60653;SDS011;46476;53.614;10.048;2022-10-31T08:24:37;16.75;;;8.60;;
60653;SDS011;46476;53.614;10.048;2022-10-31T08:27:02;16.13;;;8.30;;
60653;SDS011;46476;53.614;10.048;2022-10-31T08:29:27;15.45;;;7.93;;
60653;SDS011;46476;53.614;10.048;2022-10-31T08:31:53;16.02;;;7.57;;
60653;SDS011;46476;53.614;10.048;2022-10-31T08:34:18;14.85;;;7.97;;
60653;SDS011;46476;53.614;10.048;2022-10-31T08:36:43;16.15;;;8.20;;
60653;SDS011;46476;53.614;10.048;2022-10-31T08:39:10;14.50;;;7.28;;
60653;SDS011;46476;53.614;10.048;2022-10-31T08:41:36;13.45;;;7.40;;
60653;SDS011;46476;53.614;10.048;2022-10-31T08:44:01;13.55;;;7.43;;
60653;SDS011;46476;53.614;10.048;2022-10-31T08:46:26;13.00;;;8.18;;
60653;SDS011;46476;53.614;10.048;2022-10-31T08:48:52;13.50;;;7.82;;
60653;SDS011;46476;53.614;10.048;2022-10-31T08:51:17;13.68;;;7.45;;
60653;SDS011;46476;53.614;10.048;2022-10-31T08:53:42;12.73;;;7.28;;
60653;SDS011;46476;53.614;10.048;2022-10-31T08:56:07;12.52;;;6.53;;
60653;SDS011;46476;53.614;10.048;2022-10-31T08:58:33;12.20;;;7.60;;
60653;SDS011;46476;53.614;10.048;2022-10-31T09:00:59;13.88;;;7.53;;
60653;SDS011;46476;53.614;10.048;2022-10-31T09:03:26;12.80;;;7.03;;
60653;SDS011;46476;53.614;10.048;2022-10-31T09:05:57;13.70;;;7.57;;
60653;SDS011;46476;53.614;10.048;2022-10-31T09:08:24;12.80;;;7.35;;
60653;SDS011;46476;53.614;10.048;2022-10-31T09:10:49;12.77;;;7.40;;
60653;SDS011;46476;53.614;10.048;2022-10-31T09:13:16;14.75;;;8.32;;
60653;SDS011;46476;53.614;10.048;2022-10-31T09:15:44;14.40;;;7.78;;
60653;SDS011;46476;53.614;10.048;2022-10-31T09:18:11;11.93;;;8.02;;
60653;SDS011;46476;53.614;10.048;2022-10-31T09:20:38;13.07;;;8.43;;
60653;SDS011;46476;53.614;10.048;2022-10-31T09:23:06;14.23;;;8.73;;
60653;SDS011;46476;53.614;10.048;2022-10-31T09:25:37;14.02;;;8.60;;
60653;SDS011;46476;53.614;10.048;2022-10-31T09:28:04;16.13;;;9.65;;
60653;SDS011;46476;53.614;10.048;2022-10-31T09:30:31;13.40;;;8.52;;
60653;SDS011;46476;53.614;10.048;2022-10-31T09:32:58;14.07;;;8.40;;
60653;SDS011;46476;53.614;10.048;2022-10-31T09:35:29;13.25;;;8.00;;
60653;SDS011;46476;53.614;10.048;2022-10-31T09:38:04;14.40;;;8.98;;
60653;SDS011;46476;53.614;10.048;2022-10-31T09:43:02;15.82;;;7.97;;
60653;SDS011;46476;53.614;10.048;2022-10-31T09:45:52;14.00;;;8.15;;
60653;SDS011;46476;53.614;10.048;2022-10-31T09:51:00;13.07;;;8.45;;
60653;SDS011;46476;53.614;10.048;2022-10-31T09:53:34;15.90;;;8.88;;
60653;SDS011;46476;53.614;10.048;2022-10-31T09:56:07;14.25;;;7.70;;
60653;SDS011;46476;53.614;10.048;2022-10-31T09:58:39;16.40;;;8.18;;
60653;SDS011;46476;53.614;10.048;2022-10-31T10:01:10;12.20;;;8.20;;
60653;SDS011;46476;53.614;10.048;2022-10-31T10:03:47;15.52;;;8.35;;
60653;SDS011;46476;53.614;10.048;2022-10-31T10:06:22;13.43;;;8.23;;
60653;SDS011;46476;53.614;10.048;2022-10-31T10:08:51;15.93;;;8.25;;
60653;SDS011;46476;53.614;10.048;2022-10-31T10:22:21;12.07;;;7.43;;
60653;SDS011;46476;53.614;10.048;2022-10-31T10:30:39;13.93;;;8.32;;
60653;SDS011;46476;53.614;10.048;2022-10-31T10:33:09;12.95;;;7.53;;
60653;SDS011;46476;53.614;10.048;2022-10-31T10:36:13;11.53;;;6.90;;
60653;SDS011;46476;53.614;10.048;2022-10-31T10:41:23;14.77;;;7.63;;
60653;SDS011;46476;53.614;10.048;2022-10-31T10:43:52;15.00;;;8.13;;
60653;SDS011;46476;53.614;10.048;2022-10-31T10:49:18;12.48;;;7.22;;
60653;SDS011;46476;53.614;10.048;2022-10-31T10:51:57;10.15;;;6.78;;
60653;SDS011;46476;53.614;10.048;2022-10-31T10:54:45;13.85;;;7.10;;
60653;SDS011;46476;53.614;10.048;2022-10-31T10:59:51;10.65;;;6.88;;
60653;SDS011;46476;53.614;10.048;2022-10-31T11:04:56;15.30;;;6.93;;
60653;SDS011;46476;53.614;10.048;2022-10-31T11:07:23;13.30;;;6.60;;
60653;SDS011;46476;53.614;10.048;2022-10-31T11:09:48;12.38;;;7.25;;
60653;SDS011;46476;53.614;10.048;2022-10-31T11:12:21;11.52;;;6.88;;
60653;SDS011;46476;53.614;10.048;2022-10-31T11:14:56;12.55;;;7.43;;
60653;SDS011;46476;53.614;10.048;2022-10-31T11:17:36;13.88;;;7.25;;
60653;SDS011;46476;53.614;10.048;2022-10-31T11:22:36;13.23;;;6.57;;
60653;SDS011;46476;53.614;10.048;2022-10-31T11:25:11;12.02;;;6.85;;
60653;SDS011;46476;53.614;10.048;2022-10-31T11:27:46;11.07;;;7.05;;
60653;SDS011;46476;53.614;10.048;2022-10-31T11:30:23;13.65;;;7.20;;
60653;SDS011;46476;53.614;10.048;2022-10-31T11:32:49;13.55;;;7.53;;
60653;SDS011;46476;53.614;10.048;2022-10-31T11:35:18;13.93;;;6.97;;
60653;SDS011;46476;53.614;10.048;2022-10-31T11:37:48;12.40;;;6.63;;
60653;SDS011;46476;53.614;10.048;2022-10-31T11:40:19;11.70;;;6.40;;
60653;SDS011;46476;53.614;10.048;2022-10-31T11:42:50;13.85;;;6.97;;
60653;SDS011;46476;53.614;10.048;2022-10-31T11:45:19;10.82;;;6.32;;
60653;SDS011;46476;53.614;10.048;2022-10-31T11:47:54;10.98;;;6.97;;
60653;SDS011;46476;53.614;10.048;2022-10-31T11:50:22;14.48;;;7.85;;
60653;SDS011;46476;53.614;10.048;2022-10-31T11:52:50;23.92;;;12.65;;
60653;SDS011;46476;53.614;10.048;2022-10-31T11:55:29;16.38;;;10.10;;
60653;SDS011;46476;53.614;10.048;2022-10-31T11:57:57;12.50;;;7.00;;
60653;SDS011;46476;53.614;10.048;2022-10-31T12:00:26;11.90;;;6.55;;
60653;SDS011;46476;53.614;10.048;2022-10-31T12:03:04;11.63;;;5.80;;
60653;SDS011;46476;53.614;10.048;2022-10-31T12:06:00;13.32;;;6.30;;
60653;SDS011;46476;53.614;10.048;2022-10-31T12:08:31;12.93;;;6.70;;
60653;SDS011;46476;53.614;10.048;2022-10-31T12:27:48;13.55;;;7.07;;
60653;SDS011;46476;53.614;10.048;2022-10-31T12:35:44;13.43;;;8.52;;
60653;SDS011;46476;53.614;10.048;2022-10-31T12:38:54;14.38;;;8.02;;
60653;SDS011;46476;53.614;10.048;2022-10-31T12:54:51;24.10;;;13.65;;
60653;SDS011;46476;53.614;10.048;2022-10-31T12:57:22;25.92;;;13.23;;
60653;SDS011;46476;53.614;10.048;2022-10-31T13:02:40;24.75;;;15.20;;
60653;SDS011;46476;53.614;10.048;2022-10-31T13:05:14;22.65;;;14.07;;
60653;SDS011;46476;53.614;10.048;2022-10-31T13:07:43;20.98;;;14.13;;
60653;SDS011;46476;53.614;10.048;2022-10-31T13:10:22;22.13;;;13.63;;
60653;SDS011;46476;53.614;10.048;2022-10-31T13:12:53;19.77;;;12.73;;
60653;SDS011;46476;53.614;10.048;2022-10-31T13:15:23;18.73;;;12.68;;
60653;SDS011;46476;53.614;10.048;2022-10-31T13:17:53;18.02;;;11.88;;
60653;SDS011;46476;53.614;10.048;2022-10-31T13:20:23;20.15;;;12.55;;
60653;SDS011;46476;53.614;10.048;2022-10-31T13:22:54;19.75;;;11.57;;
60653;SDS011;46476;53.614;10.048;2022-10-31T13:25:28;18.42;;;11.50;;
60653;SDS011;46476;53.614;10.048;2022-10-31T13:27:59;18.35;;;12.02;;
60653;SDS011;46476;53.614;10.048;2022-10-31T13:30:36;21.35;;;12.02;;
60653;SDS011;46476;53.614;10.048;2022-10-31T13:33:52;18.38;;;11.07;;
60653;SDS011;46476;53.614;10.048;2022-10-31T13:46:42;21.13;;;11.52;;
60653;SDS011;46476;53.614;10.048;2022-10-31T13:54:51;16.85;;;10.30;;
60653;SDS011;46476;53.614;10.048;2022-10-31T13:57:28;18.35;;;10.98;;
60653;SDS011;46476;53.614;10.048;2022-10-31T13:59:56;17.75;;;10.30;;
60653;SDS011;46476;53.614;10.048;2022-10-31T14:02:26;17.67;;;10.00;;
60653;SDS011;46476;53.614;10.048;2022-10-31T14:04:57;15.77;;;9.55;;
60653;SDS011;46476;53.614;10.048;2022-10-31T14:07:25;16.65;;;9.65;;
60653;SDS011;46476;53.614;10.048;2022-10-31T14:12:42;17.08;;;9.82;;
60653;SDS011;46476;53.614;10.048;2022-10-31T14:15:22;16.15;;;9.70;;
60653;SDS011;46476;53.614;10.048;2022-10-31T14:18:03;17.15;;;9.55;;
60653;SDS011;46476;53.614;10.048;2022-10-31T14:28:51;15.52;;;9.30;;
60653;SDS011;46476;53.614;10.048;2022-10-31T14:34:20;18.23;;;10.18;;
60653;SDS011;46476;53.614;10.048;2022-10-31T14:51:03;16.75;;;9.82;;
60653;SDS011;46476;53.614;10.048;2022-10-31T14:53:46;16.45;;;9.50;;
60653;SDS011;46476;53.614;10.048;2022-10-31T14:56:17;17.45;;;10.10;;
60653;SDS011;46476;53.614;10.048;2022-10-31T14:58:48;14.95;;;10.05;;
60653;SDS011;46476;53.614;10.048;2022-10-31T15:06:30;14.55;;;8.43;;
60653;SDS011;46476;53.614;10.048;2022-10-31T15:09:05;13.52;;;8.93;;
60653;SDS011;46476;53.614;10.048;2022-10-31T15:11:35;13.98;;;8.85;;
60653;SDS011;46476;53.614;10.048;2022-10-31T15:16:46;12.13;;;8.23;;
60653;SDS011;46476;53.614;10.048;2022-10-31T15:19:12;12.63;;;8.07;;
60653;SDS011;46476;53.614;10.048;2022-10-31T15:21:44;11.27;;;8.00;;
60653;SDS011;46476;53.614;10.048;2022-10-31T15:24:11;12.60;;;7.85;;
60653;SDS011;46476;53.614;10.048;2022-10-31T15:26:40;14.85;;;8.48;;
60653;SDS011;46476;53.614;10.048;2022-10-31T15:29:14;15.80;;;8.15;;
60653;SDS011;46476;53.614;10.048;2022-10-31T15:34:20;13.70;;;8.63;;
60653;SDS011;46476;53.614;10.048;2022-10-31T15:36:49;14.20;;;8.95;;
60653;SDS011;46476;53.614;10.048;2022-10-31T15:39:17;13.82;;;8.68;;
60653;SDS011;46476;53.614;10.048;2022-10-31T15:41:48;14.85;;;9.20;;
60653;SDS011;46476;53.614;10.048;2022-10-31T15:44:20;15.85;;;9.57;;
60653;SDS011;46476;53.614;10.048;2022-10-31T15:46:56;16.63;;;9.35;;
60653;SDS011;46476;53.614;10.048;2022-10-31T15:49:28;15.60;;;9.93;;
60653;SDS011;46476;53.614;10.048;2022-10-31T15:51:57;14.40;;;8.88;;
60653;SDS011;46476;53.614;10.048;2022-10-31T15:54:30;14.50;;;8.60;;
60653;SDS011;46476;53.614;10.048;2022-10-31T15:56:55;14.68;;;8.52;;
60653;SDS011;46476;53.614;10.048;2022-10-31T15:59:24;13.52;;;8.73;;
60653;SDS011;46476;53.614;10.048;2022-10-31T16:01:58;14.32;;;8.88;;
60653;SDS011;46476;53.614;10.048;2022-10-31T16:04:25;13.95;;;8.60;;
60653;SDS011;46476;53.614;10.048;2022-10-31T16:09:49;13.88;;;8.00;;
60653;SDS011;46476;53.614;10.048;2022-10-31T16:12:21;13.50;;;8.32;;
60653;SDS011;46476;53.614;10.048;2022-10-31T16:14:48;14.50;;;8.05;;
60653;SDS011;46476;53.614;10.048;2022-10-31T16:17:16;14.40;;;8.85;;
60653;SDS011;46476;53.614;10.048;2022-10-31T16:22:24;13.00;;;9.10;;
60653;SDS011;46476;53.614;10.048;2022-10-31T16:27:31;15.45;;;9.05;;
60653;SDS011;46476;53.614;10.048;2022-10-31T16:29:59;16.05;;;9.27;;
60653;SDS011;46476;53.614;10.048;2022-10-31T16:37:32;14.43;;;8.60;;
60653;SDS011;46476;53.614;10.048;2022-10-31T16:39:58;14.65;;;8.52;;
60653;SDS011;46476;53.614;10.048;2022-10-31T16:42:23;15.20;;;8.80;;
60653;SDS011;46476;53.614;10.048;2022-10-31T16:44:49;13.73;;;9.05;;
60653;SDS011;46476;53.614;10.048;2022-10-31T16:47:15;16.52;;;9.70;;
60653;SDS011;46476;53.614;10.048;2022-10-31T16:49:43;16.30;;;9.60;;
60653;SDS011;46476;53.614;10.048;2022-10-31T16:52:11;16.33;;;9.95;;
60653;SDS011;46476;53.614;10.048;2022-10-31T16:54:36;18.50;;;9.98;;
60653;SDS011;46476;53.614;10.048;2022-10-31T16:57:02;16.25;;;9.95;;
60653;SDS011;46476;53.614;10.048;2022-10-31T16:59:29;18.10;;;10.13;;
60653;SDS011;46476;53.614;10.048;2022-10-31T17:01:56;17.77;;;9.88;;
60653;SDS011;46476;53.614;10.048;2022-10-31T17:04:24;19.75;;;10.43;;
60653;SDS011;46476;53.614;10.048;2022-10-31T17:06:49;20.38;;;10.90;;
60653;SDS011;46476;53.614;10.048;2022-10-31T17:09:14;20.08;;;10.70;;
60653;SDS011;46476;53.614;10.048;2022-10-31T17:11:42;17.35;;;9.80;;
60653;SDS011;46476;53.614;10.048;2022-10-31T17:14:13;16.75;;;9.93;;